Airfield :
LOGIN :

Register | Disclaimer

   EN    FR    IT 

 










Legend :    VFR   Marginal VFR   IFR   Intensive IFR   Very Intensive IFR
Visi :
Ceiling :
>= 8 km
>= 3000ft
5 to 8 km
1000 to 3000 ft
1500m to 5 km
500 to 1000 ft
800 to 1500m
200 to 500 ft
< 800m
< 200 ft
Symbols :   Thunderstorms  Fog  Heavy snow  Heavy precipitations  Wind > 20 kt
SIGMETs :     Misc.  Thunderstorms  Icing  Turbulence  Mountain Waves  Volcanic Ashes






- Airport Elevation : 156 ft
- IATA code : MLN


GEML - Melilla

CURRENT METAR :
  • 091830Z 08005KT 050V130 CAVOK 26/19 Q1014

EXPIRED METARs :
  • 091800Z 08002KT CAVOK 27/19 Q1014
  • 091730Z 08005KT 010V140 CAVOK 27/20 Q1014
  • 091700Z 05007KT 010V090 CAVOK 27/19 Q1014
  • 091630Z 03007KT 350V080 CAVOK 28/20 Q1014
  • 091600Z 01008KT 340V060 CAVOK 27/20 Q1014

TAF TAF GEML
Valid from the 09 at 15:00 until the 10 at 15:00 UTC


091400Z 0915/1015 09004KT 9999 FEW015 TX28/1014Z TN21/1005Z
PROB30
TEMPO 1000/1009 BKN010



MET'MAP, your aeronautical weather chart ! - Copyright ORBIFLY December 2007 - Disclaimer

ORBIFLY MET'MAP TEAM :

Programming & Development : Alexandra Zaïnal
Concept & original design : Baudouin d'Aumeries
Assistance for programming : Marc-Olivier Méhu
Technical & hardware support : Manuel Goepfert

Contact : metmap@orbifly.com




SOURCES & CREDITS :

   NOAA